sensor_id;sensor_type;location;lat;lon;timestamp;P1;durP1;ratioP1;P2;durP2;ratioP2
9986;SDS011;5033;46.310;11.214;2023-07-20T00:01:51;3.28;;;2.58;;
9986;SDS011;5033;46.310;11.214;2023-07-20T00:04:18;2.33;;;2.20;;
9986;SDS011;5033;46.310;11.214;2023-07-20T00:06:45;3.25;;;2.40;;
9986;SDS011;5033;46.310;11.214;2023-07-20T00:09:12;3.15;;;2.30;;
9986;SDS011;5033;46.310;11.214;2023-07-20T00:11:38;2.80;;;1.80;;
9986;SDS011;5033;46.310;11.214;2023-07-20T00:14:05;3.17;;;2.22;;
9986;SDS011;5033;46.310;11.214;2023-07-20T00:16:33;2.28;;;2.13;;
9986;SDS011;5033;46.310;11.214;2023-07-20T00:19:01;3.63;;;2.15;;
9986;SDS011;5033;46.310;11.214;2023-07-20T00:21:28;4.18;;;2.78;;
9986;SDS011;5033;46.310;11.214;2023-07-20T00:23:55;3.08;;;2.00;;
9986;SDS011;5033;46.310;11.214;2023-07-20T00:26:22;2.22;;;2.13;;
9986;SDS011;5033;46.310;11.214;2023-07-20T00:28:49;2.60;;;2.40;;
9986;SDS011;5033;46.310;11.214;2023-07-20T00:31:17;2.50;;;2.30;;
9986;SDS011;5033;46.310;11.214;2023-07-20T00:33:44;3.67;;;2.55;;
9986;SDS011;5033;46.310;11.214;2023-07-20T00:36:12;4.35;;;2.58;;
9986;SDS011;5033;46.310;11.214;2023-07-20T00:38:39;2.10;;;2.00;;
9986;SDS011;5033;46.310;11.214;2023-07-20T00:41:06;2.67;;;2.47;;
9986;SDS011;5033;46.310;11.214;2023-07-20T00:43:33;3.25;;;2.60;;
9986;SDS011;5033;46.310;11.214;2023-07-20T00:46:00;2.75;;;2.30;;
9986;SDS011;5033;46.310;11.214;2023-07-20T00:48:28;2.35;;;2.15;;
9986;SDS011;5033;46.310;11.214;2023-07-20T00:50:55;2.50;;;2.30;;
9986;SDS011;5033;46.310;11.214;2023-07-20T00:53:25;2.55;;;2.35;;
9986;SDS011;5033;46.310;11.214;2023-07-20T00:55:52;2.42;;;2.22;;
9986;SDS011;5033;46.310;11.214;2023-07-20T00:58:20;2.70;;;2.50;;
9986;SDS011;5033;46.310;11.214;2023-07-20T01:00:47;2.53;;;2.33;;
9986;SDS011;5033;46.310;11.214;2023-07-20T01:03:14;2.83;;;2.50;;
9986;SDS011;5033;46.310;11.214;2023-07-20T01:05:42;3.38;;;2.25;;
9986;SDS011;5033;46.310;11.214;2023-07-20T01:08:15;2.50;;;2.30;;
9986;SDS011;5033;46.310;11.214;2023-07-20T01:10:53;2.83;;;2.25;;
9986;SDS011;5033;46.310;11.214;2023-07-20T01:13:24;3.70;;;2.97;;
9986;SDS011;5033;46.310;11.214;2023-07-20T01:15:53;2.40;;;2.20;;
9986;SDS011;5033;46.310;11.214;2023-07-20T01:18:23;2.83;;;2.63;;
9986;SDS011;5033;46.310;11.214;2023-07-20T01:20:50;3.72;;;2.60;;
9986;SDS011;5033;46.310;11.214;2023-07-20T01:23:27;2.70;;;2.50;;
9986;SDS011;5033;46.310;11.214;2023-07-20T01:26:11;2.50;;;2.30;;
9986;SDS011;5033;46.310;11.214;2023-07-20T01:29:08;2.65;;;2.42;;
9986;SDS011;5033;46.310;11.214;2023-07-20T01:31:45;3.22;;;2.40;;
9986;SDS011;5033;46.310;11.214;2023-07-20T01:34:15;2.55;;;2.35;;
9986;SDS011;5033;46.310;11.214;2023-07-20T01:36:44;4.28;;;2.22;;
9986;SDS011;5033;46.310;11.214;2023-07-20T01:39:14;2.80;;;2.60;;
9986;SDS011;5033;46.310;11.214;2023-07-20T01:41:42;3.03;;;2.72;;
9986;SDS011;5033;46.310;11.214;2023-07-20T01:44:09;2.75;;;2.20;;
9986;SDS011;5033;46.310;11.214;2023-07-20T01:46:36;2.85;;;2.50;;
9986;SDS011;5033;46.310;11.214;2023-07-20T01:49:05;3.28;;;2.40;;
9986;SDS011;5033;46.310;11.214;2023-07-20T01:51:32;2.42;;;2.22;;
9986;SDS011;5033;46.310;11.214;2023-07-20T01:53:59;3.03;;;2.30;;
9986;SDS011;5033;46.310;11.214;2023-07-20T01:56:26;3.00;;;2.70;;
9986;SDS011;5033;46.310;11.214;2023-07-20T01:58:53;3.78;;;2.83;;
9986;SDS011;5033;46.310;11.214;2023-07-20T02:01:20;5.05;;;2.95;;
9986;SDS011;5033;46.310;11.214;2023-07-20T02:03:47;3.15;;;2.85;;
9986;SDS011;5033;46.310;11.214;2023-07-20T02:06:15;2.60;;;2.40;;
9986;SDS011;5033;46.310;11.214;2023-07-20T02:08:42;3.50;;;2.63;;
9986;SDS011;5033;46.310;11.214;2023-07-20T02:11:09;4.15;;;2.58;;
9986;SDS011;5033;46.310;11.214;2023-07-20T02:13:36;3.22;;;2.80;;
9986;SDS011;5033;46.310;11.214;2023-07-20T02:16:04;2.70;;;2.50;;
9986;SDS011;5033;46.310;11.214;2023-07-20T02:18:31;2.80;;;2.60;;
9986;SDS011;5033;46.310;11.214;2023-07-20T02:20:58;2.58;;;2.35;;
9986;SDS011;5033;46.310;11.214;2023-07-20T02:23:26;3.20;;;2.28;;
9986;SDS011;5033;46.310;11.214;2023-07-20T02:25:53;2.53;;;2.33;;
9986;SDS011;5033;46.310;11.214;2023-07-20T02:28:20;3.28;;;2.97;;
9986;SDS011;5033;46.310;11.214;2023-07-20T02:30:47;2.83;;;2.50;;
9986;SDS011;5033;46.310;11.214;2023-07-20T02:33:14;3.40;;;2.60;;
9986;SDS011;5033;46.310;11.214;2023-07-20T02:35:41;3.05;;;2.58;;
9986;SDS011;5033;46.310;11.214;2023-07-20T02:38:08;2.67;;;2.47;;
9986;SDS011;5033;46.310;11.214;2023-07-20T02:40:36;3.90;;;2.72;;
9986;SDS011;5033;46.310;11.214;2023-07-20T02:43:03;2.97;;;2.50;;
9986;SDS011;5033;46.310;11.214;2023-07-20T02:45:30;2.80;;;2.60;;
9986;SDS011;5033;46.310;11.214;2023-07-20T02:47:57;3.00;;;2.75;;
9986;SDS011;5033;46.310;11.214;2023-07-20T02:50:24;2.95;;;2.67;;
9986;SDS011;5033;46.310;11.214;2023-07-20T02:52:51;3.63;;;2.55;;
9986;SDS011;5033;46.310;11.214;2023-07-20T02:55:18;2.67;;;2.47;;
9986;SDS011;5033;46.310;11.214;2023-07-20T02:57:46;4.13;;;2.58;;
9986;SDS011;5033;46.310;11.214;2023-07-20T03:00:14;3.13;;;2.83;;
9986;SDS011;5033;46.310;11.214;2023-07-20T03:02:41;2.97;;;2.65;;
9986;SDS011;5033;46.310;11.214;2023-07-20T03:05:09;2.92;;;2.63;;
9986;SDS011;5033;46.310;11.214;2023-07-20T03:07:36;4.20;;;2.78;;
9986;SDS011;5033;46.310;11.214;2023-07-20T03:10:03;3.90;;;2.95;;
9986;SDS011;5033;46.310;11.214;2023-07-20T03:12:32;4.28;;;2.78;;
9986;SDS011;5033;46.310;11.214;2023-07-20T03:15:01;3.15;;;2.53;;
9986;SDS011;5033;46.310;11.214;2023-07-20T03:17:28;2.70;;;2.50;;
9986;SDS011;5033;46.310;11.214;2023-07-20T03:19:55;3.75;;;2.40;;
9986;SDS011;5033;46.310;11.214;2023-07-20T03:22:22;4.00;;;2.65;;
9986;SDS011;5033;46.310;11.214;2023-07-20T03:24:49;2.80;;;2.60;;
9986;SDS011;5033;46.310;11.214;2023-07-20T03:27:16;6.43;;;2.88;;
9986;SDS011;5033;46.310;11.214;2023-07-20T03:29:43;3.15;;;2.50;;
9986;SDS011;5033;46.310;11.214;2023-07-20T03:32:11;3.05;;;2.75;;
9986;SDS011;5033;46.310;11.214;2023-07-20T03:34:38;2.80;;;2.60;;
9986;SDS011;5033;46.310;11.214;2023-07-20T03:37:06;2.38;;;2.25;;
9986;SDS011;5033;46.310;11.214;2023-07-20T03:39:33;2.42;;;2.22;;
9986;SDS011;5033;46.310;11.214;2023-07-20T03:42:00;2.97;;;2.78;;
9986;SDS011;5033;46.310;11.214;2023-07-20T03:44:27;2.90;;;2.60;;
9986;SDS011;5033;46.310;11.214;2023-07-20T03:46:54;3.53;;;2.95;;
9986;SDS011;5033;46.310;11.214;2023-07-20T03:49:22;3.28;;;2.65;;
9986;SDS011;5033;46.310;11.214;2023-07-20T03:51:49;2.53;;;2.33;;
9986;SDS011;5033;46.310;11.214;2023-07-20T03:54:16;2.78;;;2.58;;
9986;SDS011;5033;46.310;11.214;2023-07-20T03:56:44;3.00;;;2.70;;
9986;SDS011;5033;46.310;11.214;2023-07-20T03:59:11;4.25;;;2.95;;
9986;SDS011;5033;46.310;11.214;2023-07-20T04:01:38;3.35;;;2.65;;
9986;SDS011;5033;46.310;11.214;2023-07-20T04:04:05;3.92;;;2.70;;
9986;SDS011;5033;46.310;11.214;2023-07-20T04:06:34;2.70;;;2.50;;
9986;SDS011;5033;46.310;11.214;2023-07-20T04:09:02;3.00;;;2.78;;
9986;SDS011;5033;46.310;11.214;2023-07-20T04:11:30;2.60;;;2.40;;
9986;SDS011;5033;46.310;11.214;2023-07-20T04:13:57;2.67;;;2.47;;
9986;SDS011;5033;46.310;11.214;2023-07-20T04:16:23;2.30;;;2.10;;
9986;SDS011;5033;46.310;11.214;2023-07-20T04:18:52;2.38;;;2.17;;
9986;SDS011;5033;46.310;11.214;2023-07-20T04:21:20;2.63;;;2.33;;
9986;SDS011;5033;46.310;11.214;2023-07-20T04:23:49;2.95;;;2.65;;
9986;SDS011;5033;46.310;11.214;2023-07-20T04:26:16;3.20;;;2.70;;
9986;SDS011;5033;46.310;11.214;2023-07-20T04:28:42;3.38;;;3.08;;
9986;SDS011;5033;46.310;11.214;2023-07-20T04:31:10;2.83;;;2.63;;
9986;SDS011;5033;46.310;11.214;2023-07-20T04:33:37;2.67;;;2.47;;
9986;SDS011;5033;46.310;11.214;2023-07-20T04:36:04;2.80;;;2.55;;
9986;SDS011;5033;46.310;11.214;2023-07-20T04:38:32;2.70;;;2.50;;
9986;SDS011;5033;46.310;11.214;2023-07-20T04:41:00;2.55;;;2.35;;
9986;SDS011;5033;46.310;11.214;2023-07-20T04:43:28;3.25;;;2.65;;
9986;SDS011;5033;46.310;11.214;2023-07-20T04:45:56;2.60;;;2.40;;
9986;SDS011;5033;46.310;11.214;2023-07-20T04:48:24;2.90;;;2.63;;
9986;SDS011;5033;46.310;11.214;2023-07-20T04:50:51;2.72;;;2.53;;
9986;SDS011;5033;46.310;11.214;2023-07-20T04:53:18;2.85;;;2.65;;
9986;SDS011;5033;46.310;11.214;2023-07-20T04:55:48;2.65;;;2.45;;
9986;SDS011;5033;46.310;11.214;2023-07-20T04:58:18;2.58;;;2.38;;
9986;SDS011;5033;46.310;11.214;2023-07-20T05:00:45;3.10;;;2.80;;
9986;SDS011;5033;46.310;11.214;2023-07-20T05:03:12;2.88;;;2.40;;
9986;SDS011;5033;46.310;11.214;2023-07-20T05:05:39;3.00;;;2.70;;
9986;SDS011;5033;46.310;11.214;2023-07-20T05:08:06;2.75;;;2.55;;
9986;SDS011;5033;46.310;11.214;2023-07-20T05:10:33;4.70;;;2.97;;
9986;SDS011;5033;46.310;11.214;2023-07-20T05:13:00;2.83;;;2.63;;
9986;SDS011;5033;46.310;11.214;2023-07-20T05:15:28;2.85;;;2.65;;
9986;SDS011;5033;46.310;11.214;2023-07-20T05:17:55;4.18;;;3.40;;
9986;SDS011;5033;46.310;11.214;2023-07-20T05:20:22;3.42;;;3.17;;
9986;SDS011;5033;46.310;11.214;2023-07-20T05:22:49;6.05;;;3.55;;
9986;SDS011;5033;46.310;11.214;2023-07-20T05:25:17;5.35;;;3.30;;
9986;SDS011;5033;46.310;11.214;2023-07-20T05:27:47;5.10;;;3.10;;
9986;SDS011;5033;46.310;11.214;2023-07-20T05:30:15;4.03;;;3.30;;
9986;SDS011;5033;46.310;11.214;2023-07-20T05:32:44;3.50;;;3.20;;
9986;SDS011;5033;46.310;11.214;2023-07-20T05:35:12;3.53;;;3.22;;
9986;SDS011;5033;46.310;11.214;2023-07-20T05:37:40;3.60;;;3.30;;
9986;SDS011;5033;46.310;11.214;2023-07-20T05:40:08;3.72;;;3.05;;
9986;SDS011;5033;46.310;11.214;2023-07-20T05:42:37;3.40;;;3.10;;
9986;SDS011;5033;46.310;11.214;2023-07-20T05:45:04;3.60;;;3.00;;
9986;SDS011;5033;46.310;11.214;2023-07-20T05:47:32;3.97;;;2.80;;
9986;SDS011;5033;46.310;11.214;2023-07-20T05:50:00;3.65;;;3.20;;
9986;SDS011;5033;46.310;11.214;2023-07-20T05:52:28;3.33;;;3.03;;
9986;SDS011;5033;46.310;11.214;2023-07-20T05:54:55;5.82;;;3.80;;
9986;SDS011;5033;46.310;11.214;2023-07-20T05:57:22;3.25;;;2.90;;
9986;SDS011;5033;46.310;11.214;2023-07-20T05:59:49;4.70;;;3.38;;
9986;SDS011;5033;46.310;11.214;2023-07-20T06:02:16;5.47;;;3.63;;
9986;SDS011;5033;46.310;11.214;2023-07-20T06:04:43;4.53;;;3.55;;
9986;SDS011;5033;46.310;11.214;2023-07-20T06:07:11;6.40;;;3.25;;
9986;SDS011;5033;46.310;11.214;2023-07-20T06:09:39;3.70;;;3.17;;
9986;SDS011;5033;46.310;11.214;2023-07-20T06:12:06;4.22;;;3.30;;
9986;SDS011;5033;46.310;11.214;2023-07-20T06:14:34;3.67;;;3.33;;
9986;SDS011;5033;46.310;11.214;2023-07-20T06:17:01;3.38;;;3.08;;
9986;SDS011;5033;46.310;11.214;2023-07-20T06:19:28;3.60;;;3.30;;
9986;SDS011;5033;46.310;11.214;2023-07-20T06:21:55;4.72;;;3.50;;
9986;SDS011;5033;46.310;11.214;2023-07-20T06:24:24;4.00;;;3.60;;
9986;SDS011;5033;46.310;11.214;2023-07-20T06:26:51;3.75;;;3.42;;
9986;SDS011;5033;46.310;11.214;2023-07-20T06:29:17;3.88;;;3.55;;
9986;SDS011;5033;46.310;11.214;2023-07-20T06:31:44;4.38;;;3.97;;
9986;SDS011;5033;46.310;11.214;2023-07-20T06:34:11;3.53;;;3.20;;
9986;SDS011;5033;46.310;11.214;2023-07-20T06:36:38;4.28;;;3.38;;
9986;SDS011;5033;46.310;11.214;2023-07-20T06:39:05;4.10;;;3.15;;
9986;SDS011;5033;46.310;11.214;2023-07-20T06:41:34;4.18;;;3.03;;
9986;SDS011;5033;46.310;11.214;2023-07-20T06:44:00;5.20;;;3.70;;
9986;SDS011;5033;46.310;11.214;2023-07-20T06:46:28;3.95;;;3.63;;
9986;SDS011;5033;46.310;11.214;2023-07-20T06:48:55;3.72;;;3.42;;
9986;SDS011;5033;46.310;11.214;2023-07-20T06:51:22;5.43;;;3.58;;
9986;SDS011;5033;46.310;11.214;2023-07-20T06:53:49;3.83;;;3.53;;
9986;SDS011;5033;46.310;11.214;2023-07-20T06:56:16;5.95;;;3.70;;
9986;SDS011;5033;46.310;11.214;2023-07-20T06:58:44;4.72;;;3.60;;
9986;SDS011;5033;46.310;11.214;2023-07-20T07:01:11;4.25;;;3.60;;
9986;SDS011;5033;46.310;11.214;2023-07-20T07:03:38;6.03;;;3.28;;
9986;SDS011;5033;46.310;11.214;2023-07-20T07:06:05;4.70;;;4.05;;
9986;SDS011;5033;46.310;11.214;2023-07-20T07:08:32;5.72;;;4.40;;
9986;SDS011;5033;46.310;11.214;2023-07-20T07:10:59;4.40;;;4.00;;
9986;SDS011;5033;46.310;11.214;2023-07-20T07:13:26;4.00;;;3.70;;
9986;SDS011;5033;46.310;11.214;2023-07-20T07:15:55;7.53;;;3.72;;
9986;SDS011;5033;46.310;11.214;2023-07-20T07:18:22;5.68;;;4.18;;
9986;SDS011;5033;46.310;11.214;2023-07-20T07:20:50;5.68;;;3.70;;
9986;SDS011;5033;46.310;11.214;2023-07-20T07:23:18;5.75;;;4.03;;
9986;SDS011;5033;46.310;11.214;2023-07-20T07:25:45;9.18;;;4.50;;
9986;SDS011;5033;46.310;11.214;2023-07-20T07:28:12;4.10;;;3.70;;
9986;SDS011;5033;46.310;11.214;2023-07-20T07:30:40;6.22;;;3.85;;
9986;SDS011;5033;46.310;11.214;2023-07-20T07:33:08;5.13;;;3.60;;
9986;SDS011;5033;46.310;11.214;2023-07-20T07:35:36;4.30;;;3.60;;
9986;SDS011;5033;46.310;11.214;2023-07-20T07:38:03;4.05;;;3.75;;
9986;SDS011;5033;46.310;11.214;2023-07-20T07:40:30;3.58;;;3.28;;
9986;SDS011;5033;46.310;11.214;2023-07-20T07:42:57;4.03;;;3.40;;
9986;SDS011;5033;46.310;11.214;2023-07-20T07:45:24;6.70;;;3.83;;
9986;SDS011;5033;46.310;11.214;2023-07-20T07:47:51;4.32;;;3.55;;
9986;SDS011;5033;46.310;11.214;2023-07-20T07:50:19;3.47;;;3.13;;
9986;SDS011;5033;46.310;11.214;2023-07-20T07:52:46;7.80;;;3.60;;
9986;SDS011;5033;46.310;11.214;2023-07-20T07:55:13;4.18;;;3.60;;
9986;SDS011;5033;46.310;11.214;2023-07-20T07:57:41;4.88;;;3.72;;
9986;SDS011;5033;46.310;11.214;2023-07-20T08:00:09;7.32;;;3.53;;
9986;SDS011;5033;46.310;11.214;2023-07-20T08:02:39;4.55;;;3.60;;
9986;SDS011;5033;46.310;11.214;2023-07-20T08:05:07;4.38;;;3.67;;
9986;SDS011;5033;46.310;11.214;2023-07-20T08:07:35;4.63;;;4.00;;
9986;SDS011;5033;46.310;11.214;2023-07-20T08:10:03;3.50;;;3.20;;
9986;SDS011;5033;46.310;11.214;2023-07-20T08:12:30;4.35;;;3.53;;
9986;SDS011;5033;46.310;11.214;2023-07-20T08:14:57;4.43;;;4.03;;
9986;SDS011;5033;46.310;11.214;2023-07-20T08:17:24;4.25;;;3.85;;
9986;SDS011;5033;46.310;11.214;2023-07-20T08:19:51;3.78;;;3.38;;
9986;SDS011;5033;46.310;11.214;2023-07-20T08:22:18;8.27;;;3.53;;
9986;SDS011;5033;46.310;11.214;2023-07-20T08:24:47;3.88;;;3.58;;
9986;SDS011;5033;46.310;11.214;2023-07-20T08:27:14;3.72;;;3.22;;
9986;SDS011;5033;46.310;11.214;2023-07-20T08:29:41;4.63;;;3.70;;
9986;SDS011;5033;46.310;11.214;2023-07-20T08:32:08;4.15;;;3.75;;
9986;SDS011;5033;46.310;11.214;2023-07-20T08:34:35;5.05;;;3.60;;
9986;SDS011;5033;46.310;11.214;2023-07-20T08:37:02;4.05;;;3.65;;
9986;SDS011;5033;46.310;11.214;2023-07-20T08:39:29;5.20;;;3.60;;
9986;SDS011;5033;46.310;11.214;2023-07-20T08:41:57;6.18;;;3.90;;
9986;SDS011;5033;46.310;11.214;2023-07-20T08:44:29;4.55;;;3.60;;
9986;SDS011;5033;46.310;11.214;2023-07-20T08:46:58;6.03;;;3.95;;
9986;SDS011;5033;46.310;11.214;2023-07-20T08:49:27;4.00;;;3.70;;
9986;SDS011;5033;46.310;11.214;2023-07-20T08:51:55;4.00;;;3.25;;
9986;SDS011;5033;46.310;11.214;2023-07-20T08:54:23;5.15;;;3.83;;
9986;SDS011;5033;46.310;11.214;2023-07-20T08:56:54;4.00;;;3.63;;
9986;SDS011;5033;46.310;11.214;2023-07-20T08:59:26;6.18;;;3.60;;
9986;SDS011;5033;46.310;11.214;2023-07-20T09:01:55;3.67;;;3.35;;
9986;SDS011;5033;46.310;11.214;2023-07-20T09:04:23;5.50;;;4.50;;
9986;SDS011;5033;46.310;11.214;2023-07-20T09:06:50;5.18;;;4.18;;
9986;SDS011;5033;46.310;11.214;2023-07-20T09:09:18;4.35;;;3.92;;
9986;SDS011;5033;46.310;11.214;2023-07-20T09:11:46;4.32;;;3.47;;
9986;SDS011;5033;46.310;11.214;2023-07-20T09:14:15;5.63;;;4.32;;
9986;SDS011;5033;46.310;11.214;2023-07-20T09:16:48;4.82;;;4.25;;
9986;SDS011;5033;46.310;11.214;2023-07-20T09:19:16;5.03;;;3.90;;
9986;SDS011;5033;46.310;11.214;2023-07-20T09:21:46;4.75;;;3.70;;
9986;SDS011;5033;46.310;11.214;2023-07-20T09:24:14;4.10;;;3.70;;
9986;SDS011;5033;46.310;11.214;2023-07-20T09:26:42;4.32;;;3.50;;
9986;SDS011;5033;46.310;11.214;2023-07-20T09:29:10;4.13;;;3.78;;
9986;SDS011;5033;46.310;11.214;2023-07-20T09:31:39;4.43;;;4.03;;
9986;SDS011;5033;46.310;11.214;2023-07-20T09:34:06;3.92;;;3.53;;
9986;SDS011;5033;46.310;11.214;2023-07-20T09:36:33;4.80;;;4.32;;
9986;SDS011;5033;46.310;11.214;2023-07-20T09:39:02;5.68;;;4.10;;
9986;SDS011;5033;46.310;11.214;2023-07-20T09:41:29;4.32;;;3.92;;
9986;SDS011;5033;46.310;11.214;2023-07-20T09:43:56;6.88;;;3.58;;
9986;SDS011;5033;46.310;11.214;2023-07-20T09:46:24;3.88;;;3.58;;
9986;SDS011;5033;46.310;11.214;2023-07-20T09:48:52;3.95;;;3.65;;
9986;SDS011;5033;46.310;11.214;2023-07-20T09:51:20;5.78;;;4.20;;
9986;SDS011;5033;46.310;11.214;2023-07-20T09:53:48;4.22;;;3.22;;
9986;SDS011;5033;46.310;11.214;2023-07-20T09:56:15;4.05;;;3.75;;
9986;SDS011;5033;46.310;11.214;2023-07-20T09:58:45;3.70;;;3.40;;
9986;SDS011;5033;46.310;11.214;2023-07-20T10:01:13;5.32;;;4.00;;
9986;SDS011;5033;46.310;11.214;2023-07-20T10:03:44;4.70;;;3.58;;
9986;SDS011;5033;46.310;11.214;2023-07-20T10:06:15;4.00;;;3.60;;
9986;SDS011;5033;46.310;11.214;2023-07-20T10:08:45;3.75;;;3.40;;
9986;SDS011;5033;46.310;11.214;2023-07-20T10:11:13;5.20;;;3.70;;
9986;SDS011;5033;46.310;11.214;2023-07-20T10:13:43;4.63;;;3.65;;
9986;SDS011;5033;46.310;11.214;2023-07-20T10:16:14;3.97;;;3.58;;
9986;SDS011;5033;46.310;11.214;2023-07-20T10:18:49;5.35;;;3.90;;
9986;SDS011;5033;46.310;11.214;2023-07-20T10:21:22;4.18;;;3.25;;
9986;SDS011;5033;46.310;11.214;2023-07-20T10:23:49;3.97;;;3.42;;
9986;SDS011;5033;46.310;11.214;2023-07-20T10:26:16;3.70;;;3.40;;
9986;SDS011;5033;46.310;11.214;2023-07-20T10:28:43;3.90;;;3.60;;
9986;SDS011;5033;46.310;11.214;2023-07-20T10:31:11;4.13;;;3.45;;
9986;SDS011;5033;46.310;11.214;2023-07-20T10:33:40;5.22;;;3.70;;
9986;SDS011;5033;46.310;11.214;2023-07-20T10:36:08;3.65;;;3.35;;
9986;SDS011;5033;46.310;11.214;2023-07-20T10:38:42;4.88;;;3.50;;
9986;SDS011;5033;46.310;11.214;2023-07-20T10:41:18;4.00;;;3.70;;
9986;SDS011;5033;46.310;11.214;2023-07-20T10:43:46;4.25;;;3.65;;
9986;SDS011;5033;46.310;11.214;2023-07-20T10:46:14;4.00;;;3.70;;
9986;SDS011;5033;46.310;11.214;2023-07-20T10:48:59;4.38;;;3.80;;
9986;SDS011;5033;46.310;11.214;2023-07-20T10:51:27;4.30;;;3.90;;
9986;SDS011;5033;46.310;11.214;2023-07-20T10:53:56;4.32;;;3.92;;
9986;SDS011;5033;46.310;11.214;2023-07-20T10:56:25;4.30;;;3.53;;
9986;SDS011;5033;46.310;11.214;2023-07-20T10:58:57;3.92;;;3.55;;
9986;SDS011;5033;46.310;11.214;2023-07-20T11:01:27;4.05;;;3.67;;
9986;SDS011;5033;46.310;11.214;2023-07-20T11:03:57;4.53;;;3.88;;
9986;SDS011;5033;46.310;11.214;2023-07-20T11:06:29;3.63;;;3.33;;
9986;SDS011;5033;46.310;11.214;2023-07-20T11:09:11;7.32;;;4.10;;
9986;SDS011;5033;46.310;11.214;2023-07-20T11:11:40;3.67;;;3.38;;
9986;SDS011;5033;46.310;11.214;2023-07-20T11:14:09;3.83;;;3.30;;
9986;SDS011;5033;46.310;11.214;2023-07-20T11:16:38;3.88;;;3.53;;
9986;SDS011;5033;46.310;11.214;2023-07-20T11:19:12;3.60;;;3.30;;
9986;SDS011;5033;46.310;11.214;2023-07-20T11:21:42;3.80;;;3.50;;
9986;SDS011;5033;46.310;11.214;2023-07-20T11:24:11;3.92;;;3.50;;
9986;SDS011;5033;46.310;11.214;2023-07-20T11:26:39;6.00;;;3.92;;
9986;SDS011;5033;46.310;11.214;2023-07-20T11:29:10;5.82;;;3.80;;
9986;SDS011;5033;46.310;11.214;2023-07-20T11:31:37;4.32;;;3.92;;
9986;SDS011;5033;46.310;11.214;2023-07-20T11:34:04;3.63;;;3.33;;
9986;SDS011;5033;46.310;11.214;2023-07-20T11:36:33;5.35;;;3.80;;
9986;SDS011;5033;46.310;11.214;2023-07-20T11:39:00;3.65;;;3.35;;
9986;SDS011;5033;46.310;11.214;2023-07-20T11:41:31;3.38;;;3.08;;
9986;SDS011;5033;46.310;11.214;2023-07-20T11:43:58;3.75;;;3.28;;
9986;SDS011;5033;46.310;11.214;2023-07-20T11:46:27;3.53;;;3.22;;
9986;SDS011;5033;46.310;11.214;2023-07-20T11:48:57;4.00;;;3.58;;
9986;SDS011;5033;46.310;11.214;2023-07-20T11:51:26;6.82;;;3.58;;
9986;SDS011;5033;46.310;11.214;2023-07-20T11:53:53;3.80;;;3.50;;
9986;SDS011;5033;46.310;11.214;2023-07-20T11:56:22;3.33;;;3.10;;
9986;SDS011;5033;46.310;11.214;2023-07-20T11:58:53;4.03;;;3.42;;
9986;SDS011;5033;46.310;11.214;2023-07-20T12:01:22;3.47;;;3.17;;
9986;SDS011;5033;46.310;11.214;2023-07-20T12:03:49;4.75;;;3.55;;
9986;SDS011;5033;46.310;11.214;2023-07-20T12:06:16;4.10;;;3.70;;
9986;SDS011;5033;46.310;11.214;2023-07-20T12:08:44;4.38;;;3.97;;
9986;SDS011;5033;46.310;11.214;2023-07-20T12:11:11;4.75;;;3.78;;
9986;SDS011;5033;46.310;11.214;2023-07-20T12:13:38;4.68;;;3.75;;
9986;SDS011;5033;46.310;11.214;2023-07-20T12:16:12;4.95;;;3.53;;
9986;SDS011;5033;46.310;11.214;2023-07-20T12:18:40;3.53;;;3.22;;
9986;SDS011;5033;46.310;11.214;2023-07-20T12:21:08;3.75;;;3.45;;
9986;SDS011;5033;46.310;11.214;2023-07-20T12:23:35;4.55;;;3.97;;
9986;SDS011;5033;46.310;11.214;2023-07-20T12:26:06;4.03;;;3.63;;
9986;SDS011;5033;46.310;11.214;2023-07-20T12:28:35;4.97;;;3.78;;
9986;SDS011;5033;46.310;11.214;2023-07-20T12:31:07;4.82;;;3.65;;
9986;SDS011;5033;46.310;11.214;2023-07-20T12:33:36;5.50;;;3.80;;
9986;SDS011;5033;46.310;11.214;2023-07-20T12:36:03;6.80;;;4.65;;
9986;SDS011;5033;46.310;11.214;2023-07-20T12:38:31;4.95;;;4.40;;
9986;SDS011;5033;46.310;11.214;2023-07-20T12:40:59;5.15;;;4.65;;
9986;SDS011;5033;46.310;11.214;2023-07-20T12:43:27;5.10;;;4.63;;
9986;SDS011;5033;46.310;11.214;2023-07-20T12:45:54;4.35;;;3.95;;
9986;SDS011;5033;46.310;11.214;2023-07-20T12:48:21;4.80;;;4.40;;
9986;SDS011;5033;46.310;11.214;2023-07-20T12:50:50;4.22;;;3.83;;
9986;SDS011;5033;46.310;11.214;2023-07-20T12:53:17;4.80;;;4.30;;
9986;SDS011;5033;46.310;11.214;2023-07-20T12:55:44;4.15;;;3.75;;
9986;SDS011;5033;46.310;11.214;2023-07-20T12:58:11;3.90;;;3.50;;
9986;SDS011;5033;46.310;11.214;2023-07-20T13:00:38;3.63;;;3.20;;
9986;SDS011;5033;46.310;11.214;2023-07-20T13:03:05;3.92;;;3.40;;
9986;SDS011;5033;46.310;11.214;2023-07-20T13:05:33;4.35;;;3.95;;
9986;SDS011;5033;46.310;11.214;2023-07-20T13:08:02;6.40;;;4.25;;
9986;SDS011;5033;46.310;11.214;2023-07-20T13:10:30;4.50;;;3.92;;
9986;SDS011;5033;46.310;11.214;2023-07-20T13:12:58;5.93;;;3.78;;
9986;SDS011;5033;46.310;11.214;2023-07-20T13:15:29;4.00;;;3.65;;
9986;SDS011;5033;46.310;11.214;2023-07-20T13:17:59;4.57;;;3.55;;
9986;SDS011;5033;46.310;11.214;2023-07-20T13:20:26;7.68;;;3.78;;
9986;SDS011;5033;46.310;11.214;2023-07-20T13:22:55;3.22;;;2.72;;
9986;SDS011;5033;46.310;11.214;2023-07-20T13:25:24;6.25;;;3.40;;
9986;SDS011;5033;46.310;11.214;2023-07-20T13:27:52;5.13;;;3.50;;
9986;SDS011;5033;46.310;11.214;2023-07-20T13:30:19;4.60;;;3.13;;
9986;SDS011;5033;46.310;11.214;2023-07-20T13:32:46;3.63;;;3.30;;
9986;SDS011;5033;46.310;11.214;2023-07-20T13:35:13;5.32;;;3.30;;
9986;SDS011;5033;46.310;11.214;2023-07-20T13:37:40;3.15;;;2.83;;
9986;SDS011;5033;46.310;11.214;2023-07-20T13:40:08;3.38;;;3.08;;
9986;SDS011;5033;46.310;11.214;2023-07-20T13:42:39;4.20;;;3.28;;
9986;SDS011;5033;46.310;11.214;2023-07-20T13:45:07;6.82;;;3.72;;
9986;SDS011;5033;46.310;11.214;2023-07-20T13:47:34;5.18;;;3.40;;
9986;SDS011;5033;46.310;11.214;2023-07-20T13:50:01;3.50;;;3.20;;
9986;SDS011;5033;46.310;11.214;2023-07-20T13:52:28;3.85;;;3.55;;
9986;SDS011;5033;46.310;11.214;2023-07-20T13:54:55;4.13;;;3.72;;
9986;SDS011;5033;46.310;11.214;2023-07-20T13:57:22;4.90;;;3.35;;
9986;SDS011;5033;46.310;11.214;2023-07-20T13:59:50;3.50;;;3.17;;
9986;SDS011;5033;46.310;11.214;2023-07-20T14:02:17;4.75;;;3.90;;
9986;SDS011;5033;46.310;11.214;2023-07-20T14:04:44;4.10;;;3.42;;
9986;SDS011;5033;46.310;11.214;2023-07-20T14:07:13;4.05;;;3.30;;
9986;SDS011;5033;46.310;11.214;2023-07-20T14:09:40;3.95;;;3.20;;
9986;SDS011;5033;46.310;11.214;2023-07-20T14:12:07;4.40;;;3.70;;
9986;SDS011;5033;46.310;11.214;2023-07-20T14:14:37;4.65;;;3.70;;
9986;SDS011;5033;46.310;11.214;2023-07-20T14:17:05;4.75;;;3.78;;
9986;SDS011;5033;46.310;11.214;2023-07-20T14:19:32;7.30;;;3.72;;
9986;SDS011;5033;46.310;11.214;2023-07-20T14:21:59;3.67;;;3.38;;
9986;SDS011;5033;46.310;11.214;2023-07-20T14:24:29;4.05;;;3.65;;
9986;SDS011;5033;46.310;11.214;2023-07-20T14:26:56;6.10;;;3.42;;
9986;SDS011;5033;46.310;11.214;2023-07-20T14:29:25;3.45;;;3.15;;
9986;SDS011;5033;46.310;11.214;2023-07-20T14:31:56;4.60;;;3.60;;
9986;SDS011;5033;46.310;11.214;2023-07-20T14:34:25;5.03;;;3.30;;
9986;SDS011;5033;46.310;11.214;2023-07-20T14:36:52;4.03;;;3.22;;
9986;SDS011;5033;46.310;11.214;2023-07-20T14:39:20;4.50;;;3.38;;
9986;SDS011;5033;46.310;11.214;2023-07-20T14:41:46;5.60;;;4.07;;
9986;SDS011;5033;46.310;11.214;2023-07-20T14:44:15;3.58;;;3.28;;
9986;SDS011;5033;46.310;11.214;2023-07-20T14:46:42;5.80;;;3.95;;
9986;SDS011;5033;46.310;11.214;2023-07-20T14:49:09;3.70;;;3.30;;
9986;SDS011;5033;46.310;11.214;2023-07-20T14:51:38;4.00;;;3.40;;
9986;SDS011;5033;46.310;11.214;2023-07-20T14:54:08;5.50;;;3.55;;
9986;SDS011;5033;46.310;11.214;2023-07-20T14:56:37;3.83;;;3.35;;
9986;SDS011;5033;46.310;11.214;2023-07-20T14:59:05;6.28;;;3.78;;
9986;SDS011;5033;46.310;11.214;2023-07-20T15:01:32;3.60;;;3.30;;
9986;SDS011;5033;46.310;11.214;2023-07-20T15:03:59;3.92;;;3.63;;
9986;SDS011;5033;46.310;11.214;2023-07-20T15:06:26;5.20;;;3.88;;